Abram, TX

5:25 PM CDT on September 23, 2014 (GMT -0500)
McAllen Miller International | Change Station
CLOSE
Current Station
Airport
Location: McAllen,
Elevation: 105 ft
Nearby Weather Stations

Elev 105 ft 26.18 °N, 98.24 °W | Updated 32 minutes ago

Rain
Rain
78 °F
Feels Like 78 °F
N
6
Wind Variable Wind from North

Today
High -- | Low -- °F
--% Chance of Precip.
Yesterday
High -- | Low -- °F
Precip. -- in
7:22 AM 7:28 PM
Waning Crescent, 0% visible
Pressure 29.99 in
Visibility 3.0 miles
Clouds Few 3100 ft
Scattered Clouds 6000 ft
Overcast 9000 ft
Dew Point 75 °F
Humidity 90%
Rainfall 0.14 in
Snow Depth Not available.
UV 1 out of 12
Pollen 9.40 out of 12
Ozone Good
PM2.5 Good
Flu Activity Not available.
METAR KMFE 232153Z 35005KT 3SM RA BR FEW031 SCT060 OVC090 26/24 A2999 RMK AO2 RAB32 SLP154 P0012 T02560239

More Conditions Fewer Conditions

Pressure 29.99 in
Visibility 3.0 miles
Clouds Few 3100 ft
Scattered Clouds 6000 ft
Overcast 9000 ft
Dew Point 75 °F
Humidity 90%
Rainfall 0.14 in
Snow Depth Not available.
UV 1 out of 12
Pollen 9.40 out of 12
Ozone Good
PM2.5 Good
Flu Activity Not available.
METAR KMFE 232153Z 35005KT 3SM RA BR FEW031 SCT060 OVC090 26/24 A2999 RMK AO2 RAB32 SLP154 P0012 T02560239

More Conditions Fewer Conditions

Nowcast | as of 5:00 PM CDT on September 23, 2014

Through 7 PM...scattered showers and thunderstorms will continue to move southwest at around 15 mph across the Rio Grande Valley and deep south Texas...with the greatest activity west of Highway 281. Periods of moderate to occasionally heavy rainfall can be expected with rainfall accumulations up to half an inch.

×

10-Day Weather Forecast

Almanac

Astronomy

Sep. 23, 2014 Rise Set
Actual Time 7:22 AM CDT 7:28 PM CDT
Civil Twilight 6:59 AM CDT 7:51 PM CDT
Nautical Twilight 6:32 AM CDT 8:18 PM CDT
Astronomical Twilight 6:05 AM CDT 8:45 PM CDT
Moon 6:49 AM CDT 7:09 PM CDT
Length of Visible Light 12h 52m
Length of Day
12h 06m
Tomorrow will be 1m 31s shorter.
Waning Crescent, 0% of the Moon is Illuminated
Today
Waning Crescent
Sep 24
New
Oct 1
First Quarter
Oct 8
Full
Oct 15
Last Quarter

Today's Extremes

State Highs State Lows

Community

WunderPhotos

Upload Photos

1,755,801 photos uploaded!

WunderBlogs® & News

Nearby

Air Quality

  Air Quality AQ Index Pollutant
Yesterday Good
OZONE
Yesterday Good
PM2.5
Current Good
PM2.5
Current Good
OZONE
Tuesday Good
PM10
Tuesday Good
OZONE
Wednesday Good
PM10
Wednesday Good
OZONE
Thursday Good
PM10
Thursday Good
OZONE
Friday Good
PM10
Friday Good
OZONE

Snow Depth

Station Depth Elevation
No new snow has been reported.

Earthquake Activity

City Distance Mag. Time & Date
No recent earthquake activity has been reported nearby.
Minimum magnitude displayed is 2.5.

Coastal Water Temperatures

Place Temperature
No Stations Reporting

Nearby Weather Stations